Terminal Aerodrome Forecast
Issued by NWS

Home | Current Version | Previous Version | Text Only | Print | Product List | Glossary On
Versions: 1 2 3 4 5 6 7 8 9 10 11 12 13 14 15 16 17
000
FTAK31 PAJN 310535
TAFAPG
TAF
PAPG 310535Z 3106/0106 VRB05KT 6SM -RA BR FEW015 BKN025 OVC035
      TEMPO 3106/3110 3SM -RA BR SCT010 OVC020
     FM311000 00000KT 4SM -SHRA BR BKN012 OVC025
     FM311300 00000KT 2SM -SHRA BR OVC015
     FM311800 00000KT 4SM -SHRA BR BKN015 OVC025
     FM312100 06005KT 6SM -SHRA BR BKN025 OVC050
     FM010500 VRB03KT 4SM BR FEW001 BKN025
      AMD LTD TO CLD VIS AND WIND 3106/3115=

USA.gov is the U.S. government's official web portal to all federal, state and local government web resources and services.